Falls Of Rough, KY (40119)

12:02 AM CDT on July 11, 2014 (GMT -0500)
Eveleigh Road (KKYLEITC8) Elev 670 ft | 37.58 °N, 86.34 °W | Change Station

Current weather conditions updated 3 seconds ago

Clear
Clear
66.2 °F
Feels Like 66.2 °F
N
0.0
Wind Variable Wind from East
Gusts 0.0 mph

Today is forecast to be nearly the same temperature as yesterday.

Today
High -- | Low -- °F
--% Chance of Precip.
Yesterday
High -- | Low -- °F
Precip. -- in
5:33 AM 8:08 PM
Waxing Gibbous, 98% visible
Pressure 30.14 in
Visibility 10.0 miles
Clouds Clear
Dew Point 62 °F
Humidity 87%
Rainfall 0.00 in
Snow Depth Not available.
UV 0 out of 12
Pollen 3.00 out of 12
Air Quality Not available.
Flu Activity Sporadic
METAR KFTK 110458Z AUTO 04002KT 10SM CLR 20/15 A3015 RMK AO2 SLP207 T01990152 402890173

More Conditions Fewer Conditions

Pressure 30.14 in
Visibility 10.0 miles
Clouds Clear
Dew Point 62 °F
Humidity 87%
Rainfall 0.00 in
Snow Depth Not available.
UV 0 out of 12
Pollen 3.00 out of 12
Air Quality Not available.
Flu Activity Sporadic
METAR KFTK 110458Z AUTO 04002KT 10SM CLR 20/15 A3015 RMK AO2 SLP207 T01990152 402890173

More Conditions Fewer Conditions

10-Day Weather Forecast

Almanac

Astronomy

Jul. 11, 2014 Rise Set
Actual Time 5:33 AM CDT 8:08 PM CDT
Civil Twilight 5:03 AM CDT 8:39 PM CDT
Nautical Twilight 4:25 AM CDT 9:17 PM CDT
Astronomical Twilight 3:42 AM CDT 9:59 PM CDT
Moon 7:20 PM CDT 4:44 AM CDT
Length of Visible Light 15h 36m
Length of Day
14h 34m
Tomorrow will be 1m 4s shorter.
Waxing Gibbous, 98% of the Moon is Illuminated
Today
Waxing Gibbous
Jul 12
Full
Jul 18
Last Quarter
Jul 26
New
Aug 3
First Quarter

Today's Extremes

State Highs State Lows

Community

WunderPhotos

Upload Photos

1,732,396 photos uploaded!

Nearby

Snow Depth

Station Depth Elevation
No new snow has been reported.

Earthquake Activity

City Distance Mag. Time & Date
No recent earthquake activity has been reported nearby.
Minimum magnitude displayed is 2.5.

Coastal Water Temperatures

Place Temperature
No Stations Reporting

Nearby Weather Stations

Station Location Temp. Dew Point Humidity Wind Precip. Elev Updated Type
Eveleigh Road, Leitchfield, KY 66.2 °F 62 °F 87% East  at  0.0 mph 0.00 in / hr 670 ft 12:02 AM CDT Rapid Fire
Clark School Road, Clarkson, KY 64.6 °F 50 °F 59% ENE  at  0.0 mph 0.00 in / hr 717 ft 12:01 AM CDT Rapid Fire

Show More Stations Show Fewer Stations